Time;durP1;ratioP1;P1;durP2;ratioP2;P2;SDS_P1;SDS_P2;PMS_P1;PMS_P2;Temp;Humidity;BMP_temperature;BMP_pressure;BME280_temperature;BME280_humidity;BME280_pressure;Samples;Min_cycle;Max_cycle;Signal;HPM_P1;HPM_P2
2021/09/16 00:01:26;;;;;;;7.10;6.50;;;19.30;74.90;;;18.46;80.22;97721.44;5005876;28;20556;-76
2021/09/16 00:03:53;;;;;;;6.90;6.30;;;19.30;75.30;;;18.59;79.13;97723.59;5015886;28;20526;-76
2021/09/16 00:06:20;;;;;;;6.17;5.67;;;19.30;74.70;;;18.51;79.68;97721.41;5030354;28;20455;-77
2021/09/16 00:08:47;;;;;;;7.73;6.00;;;19.30;74.90;;;18.51;79.81;97718.69;5012251;28;20533;-78
2021/09/16 00:11:14;;;;;;;6.07;5.57;;;19.30;75.10;;;18.57;79.51;97720.31;5009666;28;20470;-77
2021/09/16 00:13:41;;;;;;;6.47;5.90;;;19.40;74.70;;;18.52;79.66;97712.13;5014747;28;20458;-78
2021/09/16 00:16:09;;;;;;;6.40;5.80;;;19.30;74.90;;;18.54;79.62;97718.13;5008335;28;20551;-78
2021/09/16 00:18:36;;;;;;;6.17;5.40;;;19.30;74.90;;;18.53;79.87;97722.78;5017572;28;20546;-78
2021/09/16 00:21:04;;;;;;;6.63;5.97;;;19.30;75.10;;;18.49;79.36;97713.47;5011123;28;20501;-78
2021/09/16 00:23:31;;;;;;;6.17;5.57;;;19.30;74.80;;;18.40;79.98;97715.94;5014752;28;20893;-78
2021/09/16 00:25:58;;;;;;;7.00;5.83;;;19.30;75.20;;;18.44;80.55;97720.88;5007623;28;20463;-77
2021/09/16 00:28:25;;;;;;;6.93;5.63;;;19.30;75.70;;;18.33;79.89;97711.84;5013413;28;20514;-77
2021/09/16 00:30:57;;;;;;;6.13;5.63;;;19.20;75.20;;;18.33;80.94;97709.94;5019045;28;21003;-76
2021/09/16 00:33:25;;;;;;;6.27;5.73;;;19.20;76.30;;;18.36;80.39;97720.31;5009534;28;20459;-77
2021/09/16 00:35:53;;;;;;;6.00;5.37;;;19.20;76.00;;;18.32;80.34;97707.47;5012834;28;20537;-77
2021/09/16 00:38:20;;;;;;;5.80;5.30;;;19.20;75.70;;;18.27;80.49;97711.84;5010585;28;20558;-79
2021/09/16 00:40:47;;;;;;;6.53;5.03;;;19.20;75.80;;;18.38;80.33;97712.66;5016721;28;20538;-77
2021/09/16 00:43:15;;;;;;;6.07;5.47;;;19.20;76.10;;;18.30;80.91;97707.75;5016312;28;20486;-76
2021/09/16 00:45:42;;;;;;;8.33;6.40;;;19.20;76.30;;;18.31;80.18;97701.19;5011108;28;21040;-76
2021/09/16 00:48:09;;;;;;;5.70;5.20;;;19.10;75.80;;;18.21;80.81;97706.66;5016856;28;20459;-77
2021/09/16 00:50:37;;;;;;;6.53;6.03;;;19.10;75.90;;;18.14;81.50;97712.38;5013278;28;20503;-77
2021/09/16 00:53:24;;;;;;;6.83;6.23;;;19.10;76.40;;;18.11;81.66;97712.94;5012252;28;20506;-77
2021/09/16 00:55:55;;;;;;;5.50;5.10;;;19.00;76.90;;;18.07;81.80;97723.59;5009639;28;20530;-78
2021/09/16 00:58:24;;;;;;;6.10;5.70;;;19.00;77.00;;;18.19;81.69;97719.78;5025784;28;20525;-78
2021/09/16 01:00:52;;;;;;;6.00;5.50;;;19.00;77.20;;;18.19;81.34;97715.13;5016402;28;20532;-78
2021/09/16 01:03:19;;;;;;;6.10;5.60;;;19.10;77.10;;;18.15;81.67;97724.16;4995335;28;20463;-78
2021/09/16 01:05:48;;;;;;;6.93;5.77;;;19.10;77.40;;;18.22;81.18;97725.53;5007279;28;20584;-76
2021/09/16 01:08:15;;;;;;;6.43;5.93;;;19.10;77.10;;;18.21;81.61;97723.06;5011746;28;20990;-77
2021/09/16 01:10:42;;;;;;;5.93;5.43;;;19.10;77.30;;;18.27;81.17;97727.44;5011723;28;20542;-77
2021/09/16 01:13:10;;;;;;;7.07;6.00;;;19.10;77.30;;;18.31;80.97;97739.47;5007087;28;20551;-77
2021/09/16 01:15:38;;;;;;;5.97;5.47;;;19.10;77.10;;;18.32;81.01;97732.91;5011354;28;20498;-77
2021/09/16 01:18:05;;;;;;;6.20;5.60;;;19.10;77.00;;;18.31;81.00;97734.00;5011657;28;20466;-77
2021/09/16 01:20:32;;;;;;;6.70;6.10;;;19.20;77.00;;;18.20;81.96;97743.28;5011283;28;20808;-77
2021/09/16 01:23:01;;;;;;;6.00;5.50;;;19.10;77.50;;;18.19;81.78;97719.78;4991111;28;20527;-77
2021/09/16 01:25:31;;;;;;;7.43;5.93;;;19.10;77.80;;;18.25;81.68;97726.88;5008635;28;20467;-77
2021/09/16 01:28:00;;;;;;;6.53;5.93;;;19.10;77.80;;;18.26;81.27;97720.31;5027063;28;20448;-78
2021/09/16 01:30:28;;;;;;;5.90;5.30;;;19.10;77.50;;;18.30;81.41;97723.34;5028211;28;20510;-78
2021/09/16 01:32:57;;;;;;;6.33;5.80;;;19.10;77.40;;;18.20;81.94;97725.00;5008536;28;20971;-77
2021/09/16 01:35:25;;;;;;;7.57;6.47;;;19.10;77.80;;;18.09;82.30;97726.88;5023030;28;20458;-76
2021/09/16 01:37:52;;;;;;;6.43;5.70;;;19.00;78.10;;;18.06;82.33;97724.69;5010152;28;20526;-76
2021/09/16 01:40:21;;;;;;;6.40;5.80;;;19.00;78.30;;;18.08;82.35;97719.75;5007979;28;20457;-75
2021/09/16 01:42:49;;;;;;;6.37;5.87;;;19.00;78.40;;;18.14;82.26;97723.31;5009086;28;20596;-75
2021/09/16 01:45:19;;;;;;;6.13;5.70;;;19.00;78.70;;;18.09;82.44;97723.34;5007027;28;20557;-76
2021/09/16 01:47:48;;;;;;;6.57;5.97;;;18.90;78.60;;;18.09;82.59;97724.13;5017684;28;20480;-77
2021/09/16 01:50:17;;;;;;;5.80;5.30;;;18.90;78.70;;;18.07;82.30;97726.31;5010544;28;20575;-77
2021/09/16 01:52:45;;;;;;;5.73;5.30;;;18.90;78.60;;;18.00;82.61;97725.75;5013166;28;20534;-75
2021/09/16 01:55:12;;;;;;;6.37;5.80;;;18.90;78.70;;;17.98;82.87;97726.00;5027669;28;20888;-75
2021/09/16 01:57:42;;;;;;;6.70;5.60;;;18.90;79.20;;;17.96;83.21;97716.44;5008928;28;20519;-75
2021/09/16 02:00:10;;;;;;;6.67;6.17;;;18.80;79.40;;;17.98;83.01;97715.06;5009058;28;20513;-76
2021/09/16 02:02:38;;;;;;;6.07;5.57;;;18.80;79.30;;;18.00;82.51;97706.63;5012557;28;20467;-76
2021/09/16 02:05:06;;;;;;;6.03;5.30;;;18.90;79.60;;;18.02;82.61;97709.94;5012749;28;20547;-77
2021/09/16 02:07:33;;;;;;;7.00;5.97;;;18.90;79.30;;;17.95;83.09;97709.31;5014189;28;20603;-76
2021/09/16 02:10:00;;;;;;;5.80;5.30;;;18.80;79.40;;;18.04;82.86;97713.22;5015526;28;20532;-76
2021/09/16 02:12:27;;;;;;;5.50;5.00;;;18.90;79.70;;;18.02;82.93;97720.88;5012082;28;20463;-76
2021/09/16 02:14:55;;;;;;;6.50;5.93;;;18.90;79.80;;;18.03;83.23;97711.56;5011696;28;20506;-76
2021/09/16 02:17:24;;;;;;;5.77;5.27;;;18.90;80.00;;;18.09;82.25;97713.19;5012383;28;20447;-76
2021/09/16 02:19:51;;;;;;;7.63;6.97;;;18.90;79.50;;;18.12;82.22;97720.88;5013280;28;20996;-76
2021/09/16 02:22:18;;;;;;;5.53;5.03;;;18.90;79.30;;;18.11;82.58;97716.47;5008476;28;20491;-76
2021/09/16 02:24:45;;;;;;;5.93;5.43;;;18.90;79.60;;;17.94;82.52;97691.28;5010857;28;20495;-77
2021/09/16 02:27:12;;;;;;;6.00;5.50;;;19.00;79.80;;;18.15;82.67;97718.69;5011074;28;20491;-77
2021/09/16 02:29:39;;;;;;;7.00;6.30;;;19.00;80.00;;;18.05;82.69;97709.38;5014733;28;20471;-76
2021/09/16 02:32:09;;;;;;;7.53;5.50;;;19.00;79.80;;;18.20;82.10;97718.69;5028479;28;20475;-77
2021/09/16 02:34:36;;;;;;;7.33;5.80;;;19.00;79.50;;;18.33;81.25;97709.94;5017745;28;21250;-76
2021/09/16 02:37:04;;;;;;;6.90;6.40;;;19.10;79.10;;;18.14;82.24;97709.66;5012128;28;20448;-76
2021/09/16 02:39:31;;;;;;;8.27;6.40;;;19.00;79.40;;;18.17;82.27;97706.38;5018660;28;20566;-77
2021/09/16 02:41:58;;;;;;;6.90;6.30;;;19.00;79.60;;;18.07;82.59;97704.47;5015332;28;20502;-76
2021/09/16 02:44:25;;;;;;;7.30;6.60;;;19.00;79.60;;;17.90;83.53;97695.66;5011170;28;20950;-76
2021/09/16 02:46:52;;;;;;;7.17;6.43;;;18.90;80.10;;;17.81;84.09;97696.19;5011961;28;21030;-76
2021/09/16 02:49:21;;;;;;;7.20;6.50;;;18.80;80.70;;;17.95;83.94;97701.13;5011820;28;20467;-78
2021/09/16 02:51:48;;;;;;;7.30;6.70;;;18.80;80.80;;;18.06;83.16;97716.50;5015112;28;20510;-76
2021/09/16 02:54:15;;;;;;;7.40;6.60;;;18.90;80.90;;;18.02;83.97;97717.25;5021042;28;20511;-76
2021/09/16 02:56:42;;;;;;;7.10;6.30;;;18.90;81.30;;;17.95;84.20;97714.78;5030142;28;20455;-77
2021/09/16 02:59:09;;;;;;;8.37;7.03;;;18.80;81.50;;;17.98;84.16;97711.53;5041656;28;20490;-76
2021/09/16 03:01:36;;;;;;;7.53;6.73;;;18.80;81.70;;;17.91;84.57;97705.50;5042370;28;20447;-76
2021/09/16 03:04:03;;;;;;;7.33;6.73;;;18.80;82.10;;;17.76;84.59;97700.84;5036145;28;20436;-77
2021/09/16 03:06:31;;;;;;;7.60;7.00;;;18.80;82.20;;;17.93;84.70;97717.81;5026500;28;20446;-76
2021/09/16 03:08:58;;;;;;;6.80;5.97;;;18.80;82.30;;;17.96;84.47;97716.44;5017495;28;20459;-76
2021/09/16 03:11:26;;;;;;;8.77;6.77;;;18.80;82.30;;;17.95;84.37;97718.38;5016688;28;20515;-76
2021/09/16 03:13:53;;;;;;;7.73;6.23;;;18.80;82.40;;;18.00;84.54;97712.09;5015956;28;20460;-76
2021/09/16 03:16:20;;;;;;;9.27;7.10;;;18.80;82.60;;;17.93;84.65;97708.78;4993342;28;20511;-76
2021/09/16 03:18:47;;;;;;;7.10;6.40;;;18.80;82.60;;;17.87;85.08;97707.16;5015598;28;20506;-76
2021/09/16 03:21:14;;;;;;;6.20;5.70;;;18.80;82.90;;;17.83;85.38;97704.13;5014440;28;20454;-76
2021/09/16 03:23:43;;;;;;;7.43;6.83;;;18.70;83.10;;;17.78;85.53;97704.94;5013845;28;20459;-76
2021/09/16 03:26:12;;;;;;;9.57;6.97;;;18.70;83.30;;;17.78;85.90;97709.59;5028521;28;20547;-77
2021/09/16 03:28:40;;;;;;;7.07;6.47;;;18.70;83.60;;;17.75;85.91;97708.22;5018511;28;20582;-77
2021/09/16 03:31:07;;;;;;;7.10;6.40;;;18.60;83.90;;;17.79;85.78;97698.38;5029874;28;20487;-76
2021/09/16 03:33:35;;;;;;;7.40;6.70;;;18.70;83.80;;;17.78;85.35;97696.72;5020828;28;20487;-76
2021/09/16 03:36:02;;;;;;;7.40;6.73;;;18.60;83.80;;;17.81;85.40;97698.91;5013568;28;20554;-76
2021/09/16 03:38:29;;;;;;;7.17;6.47;;;18.60;83.80;;;17.93;84.98;97703.31;5030301;28;20955;-77
2021/09/16 03:40:57;;;;;;;7.33;6.67;;;18.70;83.90;;;17.80;85.34;97694.56;5017284;28;20534;-78
2021/09/16 03:43:26;;;;;;;7.70;7.00;;;18.70;84.00;;;17.80;85.66;97702.75;5013509;28;20523;-76
2021/09/16 03:45:53;;;;;;;7.17;6.57;;;18.70;84.20;;;17.84;85.12;97687.47;5033548;28;20517;-76
2021/09/16 03:48:20;;;;;;;6.80;6.20;;;18.70;84.20;;;17.91;85.11;97697.31;5015867;28;20526;-77
2021/09/16 03:50:47;;;;;;;7.33;6.73;;;18.70;84.10;;;17.89;84.79;97691.28;5020836;28;21071;-76
2021/09/16 03:53:15;;;;;;;7.30;6.30;;;18.70;83.70;;;17.78;85.46;97693.19;5012680;28;20581;-77
2021/09/16 03:55:43;;;;;;;7.37;6.67;;;18.70;84.10;;;17.77;85.62;97694.28;5013068;28;20487;-76
2021/09/16 03:58:11;;;;;;;6.90;6.40;;;18.60;84.70;;;17.81;85.74;97696.19;5018294;28;20483;-76
2021/09/16 04:00:38;;;;;;;7.50;6.80;;;18.60;84.50;;;17.71;85.95;97693.47;5015873;28;20444;-76
2021/09/16 04:03:07;;;;;;;8.03;6.70;;;18.60;84.50;;;17.70;85.79;97698.09;5017121;28;20456;-76
2021/09/16 04:05:34;;;;;;;7.27;6.57;;;18.60;84.50;;;17.63;86.43;97691.25;5017497;28;20917;-76
2021/09/16 04:08:02;;;;;;;8.00;7.20;;;18.50;84.90;;;17.56;86.68;97681.41;5019136;28;20455;-75
2021/09/16 04:10:30;;;;;;;8.10;7.30;;;18.50;85.30;;;17.62;86.47;97695.91;5033648;28;21144;-75
2021/09/16 04:12:57;;;;;;;9.00;8.20;;;18.50;85.50;;;17.65;86.30;97694.53;5016898;28;20498;-76
2021/09/16 04:15:26;;;;;;;7.37;6.67;;;18.50;85.30;;;17.68;86.20;97689.34;5019255;28;20561;-76
2021/09/16 04:17:53;;;;;;;6.97;6.37;;;18.50;85.40;;;17.67;86.27;97689.63;5010684;28;20536;-76
2021/09/16 04:20:20;;;;;;;6.93;6.23;;;18.50;85.40;;;17.63;86.51;97692.06;5010685;28;20500;-76
2021/09/16 04:22:47;;;;;;;6.90;6.27;;;18.50;85.50;;;17.62;86.57;97692.34;5013277;28;20506;-76
2021/09/16 04:25:14;;;;;;;7.03;6.33;;;18.50;85.40;;;17.65;86.65;97689.88;5016995;28;20562;-75
2021/09/16 04:27:41;;;;;;;7.53;6.93;;;18.50;85.90;;;17.64;86.86;97692.88;5000777;28;20540;-75
2021/09/16 04:30:11;;;;;;;7.50;6.90;;;18.50;86.10;;;17.65;86.76;97692.63;4985139;28;20472;-76
2021/09/16 04:32:39;;;;;;;8.20;7.50;;;18.50;86.00;;;17.62;86.98;97693.16;5029477;28;20509;-75
2021/09/16 04:35:08;;;;;;;8.67;7.87;;;18.50;86.20;;;17.61;86.89;97687.97;5015115;28;20460;-76
2021/09/16 04:37:35;;;;;;;6.40;5.90;;;18.50;86.30;;;17.63;87.38;97686.63;5014765;28;20463;-75
2021/09/16 04:40:02;;;;;;;7.63;6.77;;;18.50;86.80;;;17.67;87.15;97686.91;5019535;28;21037;-76
2021/09/16 04:42:29;;;;;;;7.20;6.50;;;18.50;86.70;;;17.59;87.73;97690.97;5009849;28;20541;-75
2021/09/16 04:44:56;;;;;;;8.40;6.83;;;18.50;87.10;;;17.46;88.88;97703.22;5014134;28;20483;-76
2021/09/16 04:47:23;;;;;;;7.70;6.90;;;18.40;87.90;;;17.54;89.22;97699.97;5010014;28;20501;-77
2021/09/16 04:49:51;;;;;;;8.87;7.97;;;18.40;88.90;;;17.54;89.23;97699.97;5006568;28;21458;-77
2021/09/16 04:52:18;;;;;;;9.70;8.90;;;18.40;88.80;;;17.60;89.04;97703.53;5025129;28;20545;-76
2021/09/16 04:54:45;;;;;;;10.03;9.13;;;18.40;89.20;;;17.62;89.53;97712.28;5017070;28;20464;-76
2021/09/16 04:57:12;;;;;;;9.40;8.50;;;18.50;89.80;;;17.63;89.36;97713.09;5012780;28;20558;-76
2021/09/16 04:59:39;;;;;;;9.97;9.03;;;18.50;89.90;;;17.63;89.11;97703.00;5033788;28;20935;-76
2021/09/16 05:02:06;;;;;;;11.27;7.70;;;18.50;89.90;;;17.62;88.82;97703.25;5015371;28;20452;-76
2021/09/16 05:04:33;;;;;;;8.60;7.80;;;18.50;89.40;;;17.62;88.86;97706.00;5030270;28;20542;-77
2021/09/16 05:07:02;;;;;;;8.87;6.90;;;18.50;89.50;;;17.60;88.32;97705.44;5014430;28;20505;-76
2021/09/16 05:09:30;;;;;;;6.90;6.13;;;18.50;89.10;;;17.70;88.09;97700.00;5011870;28;21061;-78
2021/09/16 05:11:57;;;;;;;6.47;5.97;;;18.50;89.10;;;17.72;87.81;97700.56;5006850;28;20475;-77
2021/09/16 05:14:24;;;;;;;7.77;7.07;;;18.60;88.90;;;17.74;87.58;97705.72;5010418;28;20475;-75
2021/09/16 05:16:53;;;;;;;7.00;6.33;;;18.60;88.60;;;17.68;87.86;97707.66;5028051;28;20488;-76
2021/09/16 05:19:20;;;;;;;8.03;7.33;;;18.60;88.70;;;17.66;88.01;97720.75;5006782;28;20574;-75
2021/09/16 05:21:47;;;;;;;6.83;5.90;;;18.60;88.70;;;17.66;88.26;97724.31;5009141;28;20521;-75
2021/09/16 05:24:17;;;;;;;7.33;6.60;;;18.60;89.10;;;17.63;88.49;97715.81;5005223;28;20463;-78
2021/09/16 05:26:44;;;;;;;8.13;6.50;;;18.50;89.20;;;17.64;88.82;97720.19;5009298;28;20466;-77
2021/09/16 05:29:11;;;;;;;7.40;6.70;;;18.50;89.50;;;17.67;88.45;97719.69;5007659;28;20490;-79
2021/09/16 05:31:38;;;;;;;10.73;7.00;;;18.60;89.50;;;17.72;88.33;97716.94;5011795;28;20565;-77
2021/09/16 05:34:06;;;;;;;8.43;6.40;;;18.60;89.40;;;17.71;88.17;97720.78;5006670;28;20905;-77
2021/09/16 05:36:34;;;;;;;7.47;6.60;;;18.60;89.20;;;17.82;87.80;97719.72;5023601;28;20897;-79
2021/09/16 05:39:01;;;;;;;7.67;6.60;;;18.70;89.10;;;17.79;87.88;97716.69;5005297;28;20514;-79
2021/09/16 05:41:30;;;;;;;14.20;10.20;;;18.70;88.80;;;17.83;87.88;97723.25;5006108;28;20828;-82
2021/09/16 05:43:58;;;;;;;7.13;6.00;;;18.70;89.10;;;17.82;87.87;97725.19;5004502;28;20548;-81
2021/09/16 05:46:25;;;;;;;6.87;5.40;;;18.70;89.00;;;17.71;88.07;97720.78;5014586;28;20474;-79
2021/09/16 05:48:52;;;;;;;6.93;6.03;;;18.70;88.70;;;17.72;88.06;97727.88;5011552;28;20459;-77
2021/09/16 05:51:19;;;;;;;8.23;6.00;;;18.70;88.90;;;17.80;88.00;97729.25;5008476;28;20466;-78
2021/09/16 05:53:46;;;;;;;5.73;5.27;;;18.70;89.20;;;17.83;87.89;97735.00;5008366;28;20550;-80
2021/09/16 05:56:13;;;;;;;7.03;6.00;;;18.70;89.00;;;17.92;87.58;97738.03;5010544;28;21017;-78
2021/09/16 05:58:42;;;;;;;6.77;6.17;;;18.80;89.00;;;17.99;87.36;97729.59;5024334;28;20491;-80
2021/09/16 06:01:09;;;;;;;6.30;5.40;;;18.80;88.70;;;17.98;87.07;97720.53;5018314;28;20459;-79
2021/09/16 06:03:36;;;;;;;5.63;5.13;;;18.90;88.60;;;18.03;87.14;97730.69;5010422;28;20514;-78
2021/09/16 06:06:03;;;;;;;5.57;5.10;;;18.90;88.30;;;18.16;86.56;97734.00;5008587;28;20463;-78
2021/09/16 06:08:30;;;;;;;6.70;5.37;;;19.00;88.00;;;18.17;86.03;97720.03;5013206;28;20469;-79
2021/09/16 06:10:57;;;;;;;10.30;5.67;;;19.10;87.50;;;18.27;85.84;97735.63;5009932;28;20551;-79
2021/09/16 06:13:25;;;;;;;5.40;4.90;;;19.20;87.40;;;18.37;85.30;97727.44;5022355;28;20470;-78
2021/09/16 06:15:53;;;;;;;6.90;5.87;;;19.20;87.20;;;18.41;84.83;97730.44;5015970;28;20546;-77
2021/09/16 06:18:20;;;;;;;10.20;5.90;;;19.30;86.80;;;18.43;85.13;97736.47;5005705;28;20452;-76
2021/09/16 06:20:49;;;;;;;6.20;5.60;;;19.30;86.70;;;18.35;85.26;97735.09;5012479;28;20447;-80
2021/09/16 06:23:17;;;;;;;6.50;5.90;;;19.30;86.60;;;18.34;85.21;97738.94;5010380;28;20470;-77
2021/09/16 06:25:44;;;;;;;6.03;5.53;;;19.20;86.50;;;18.30;85.36;97737.00;5012368;28;20471;-78
2021/09/16 06:28:11;;;;;;;10.07;5.47;;;19.20;86.30;;;18.29;85.38;97738.09;5008998;28;20456;-79
2021/09/16 06:30:38;;;;;;;7.10;5.83;;;19.20;86.30;;;18.37;85.08;97730.16;5011791;28;20528;-77
2021/09/16 06:33:13;;;;;;;6.13;5.63;;;19.30;86.50;;;18.33;84.95;97739.19;5017341;28;20538;-78
2021/09/16 06:35:40;;;;;;;9.10;6.30;;;19.30;86.20;;;18.36;84.84;97736.72;5021656;28;20506;-77
2021/09/16 06:38:08;;;;;;;6.30;5.70;;;19.30;86.10;;;18.57;84.06;97746.84;5023980;28;20531;-78
2021/09/16 06:40:35;;;;;;;5.73;5.23;;;19.40;86.00;;;18.60;84.06;97743.56;5018986;28;20448;-80
2021/09/16 06:43:02;;;;;;;6.10;5.50;;;19.40;85.70;;;18.68;83.36;97754.78;5016836;28;20456;-79
2021/09/16 06:45:29;;;;;;;6.57;6.07;;;19.50;85.20;;;18.76;83.00;97756.13;5032384;28;20456;-77
2021/09/16 06:47:57;;;;;;;6.90;6.20;;;19.60;85.00;;;18.75;83.10;97750.94;5014219;28;20454;-76
2021/09/16 06:50:25;;;;;;;6.97;6.27;;;19.60;85.10;;;18.73;83.19;97747.66;5013920;28;20506;-75
2021/09/16 06:52:52;;;;;;;10.20;8.97;;;19.60;84.70;;;18.66;83.26;97747.94;5014878;28;20526;-75
2021/09/16 06:55:20;;;;;;;7.00;5.70;;;19.60;84.60;;;18.72;83.10;97743.28;5027602;28;20494;-77
2021/09/16 06:57:47;;;;;;;7.70;6.90;;;19.60;84.50;;;18.65;83.31;97758.06;5030736;28;20487;-79
2021/09/16 07:00:15;;;;;;;9.67;5.80;;;19.60;84.40;;;18.57;83.34;97755.88;5015261;28;20549;-78
2021/09/16 07:02:42;;;;;;;9.57;5.60;;;19.60;84.20;;;18.43;84.28;97752.88;5011538;28;20468;-78
2021/09/16 07:05:13;;;;;;;6.90;6.30;;;19.40;84.60;;;18.32;84.57;97751.22;5012713;28;20462;-79
2021/09/16 07:07:42;;;;;;;7.57;6.97;;;19.30;84.80;;;18.52;83.76;97750.41;4997135;28;20469;-79
2021/09/16 07:10:11;;;;;;;6.00;5.40;;;19.40;85.00;;;18.43;83.45;97757.53;5009526;28;20577;-77
2021/09/16 07:12:38;;;;;;;5.90;5.40;;;19.40;84.60;;;18.29;83.41;97744.41;5009385;28;20467;-80
2021/09/16 07:15:07;;;;;;;7.23;6.17;;;19.30;84.50;;;18.46;83.52;97759.72;5013999;28;20479;-79
2021/09/16 07:17:35;;;;;;;7.03;5.50;;;19.40;84.60;;;18.41;83.42;97750.41;5018549;28;20507;-79
2021/09/16 07:20:02;;;;;;;4.87;4.37;;;19.30;84.50;;;18.50;82.68;97737.03;5014742;28;20920;-79
2021/09/16 07:22:29;;;;;;;6.30;5.67;;;19.40;84.20;;;18.60;82.67;97752.59;5011142;28;20510;-79
2021/09/16 07:24:57;;;;;;;8.13;5.20;;;19.40;84.50;;;18.78;81.78;97759.41;5009865;28;20475;-78
2021/09/16 07:27:24;;;;;;;5.20;4.80;;;19.50;83.90;;;18.75;82.36;97764.63;5012958;28;20452;-76
2021/09/16 07:29:52;;;;;;;6.23;5.30;;;19.60;84.00;;;18.90;82.66;97761.88;5010650;28;20454;-77
2021/09/16 07:32:20;;;;;;;5.70;5.20;;;19.60;84.50;;;18.69;84.58;97761.88;5014184;28;20478;-78
2021/09/16 07:34:47;;;;;;;6.03;5.50;;;19.60;85.30;;;18.73;85.18;97762.16;5008525;28;20467;-77
2021/09/16 07:37:15;;;;;;;8.60;7.73;;;19.60;86.10;;;18.78;84.99;97759.41;5009289;28;20509;-78
2021/09/16 07:39:42;;;;;;;6.30;5.40;;;19.60;86.40;;;19.23;82.33;97765.13;5013089;28;20517;-78
2021/09/16 07:42:13;;;;;;;5.37;4.87;;;19.80;85.40;;;19.25;82.04;97767.56;5039442;28;20954;-78
2021/09/16 07:44:40;;;;;;;6.20;5.50;;;19.90;84.80;;;19.42;81.12;97760.94;5019419;28;20478;-78
2021/09/16 07:47:11;;;;;;;5.60;4.70;;;20.10;84.30;;;19.37;80.76;97768.06;5016490;28;20460;-77
2021/09/16 07:49:39;;;;;;;5.67;4.80;;;20.20;83.80;;;19.26;81.47;97763.75;5017853;28;20463;-78
2021/09/16 07:52:06;;;;;;;5.70;5.20;;;20.10;83.70;;;19.14;81.80;97755.00;5011266;28;20507;-77
2021/09/16 07:54:33;;;;;;;7.23;5.17;;;20.10;83.70;;;19.19;81.45;97776.91;4990528;28;21197;-76
2021/09/16 07:57:00;;;;;;;8.80;6.17;;;20.10;83.70;;;19.23;82.45;97776.06;5010922;28;20882;-76
2021/09/16 07:59:29;;;;;;;6.10;5.60;;;20.10;84.10;;;19.03;83.48;97782.41;5017483;28;20463;-77
2021/09/16 08:01:56;;;;;;;7.30;6.60;;;20.00;84.10;;;18.97;84.26;97778.81;5010989;28;20463;-76
2021/09/16 08:04:23;;;;;;;6.70;6.10;;;20.00;84.70;;;18.86;85.62;97781.84;5011813;28;20474;-76
2021/09/16 08:06:50;;;;;;;6.80;6.10;;;19.90;85.50;;;18.81;85.91;97780.78;5015685;28;20475;-75
2021/09/16 08:09:18;;;;;;;6.20;5.70;;;19.80;86.20;;;18.61;87.20;97778.88;5028117;28;20498;-77
2021/09/16 08:11:45;;;;;;;6.77;6.17;;;19.70;87.00;;;18.79;86.75;97793.06;5002803;28;20465;-76
2021/09/16 08:14:12;;;;;;;7.17;6.57;;;19.70;87.80;;;18.69;87.52;97789.25;5013120;28;20486;-77
2021/09/16 08:16:41;;;;;;;7.30;6.63;;;19.70;88.10;;;18.60;88.20;97790.91;5013999;28;20483;-76
2021/09/16 08:19:08;;;;;;;11.63;7.00;;;19.60;88.50;;;18.50;88.20;97790.91;5010974;28;20941;-75
2021/09/16 08:21:35;;;;;;;7.90;7.20;;;19.60;88.50;;;18.47;89.13;97786.78;5029612;28;20483;-77
2021/09/16 08:24:03;;;;;;;7.87;7.17;;;19.50;89.50;;;18.38;89.49;97789.25;5007267;28;20603;-77
2021/09/16 08:26:30;;;;;;;7.57;6.87;;;19.40;90.10;;;18.27;89.57;97791.16;5010462;28;20521;-77
2021/09/16 08:28:57;;;;;;;7.87;6.27;;;19.40;90.00;;;18.29;90.01;97790.88;5008947;28;20511;-77
2021/09/16 08:31:24;;;;;;;7.33;6.70;;;19.30;90.40;;;18.36;90.25;97791.44;5011817;28;20893;-77
2021/09/16 08:33:53;;;;;;;6.93;6.33;;;19.30;90.70;;;18.37;90.73;97797.72;5025843;28;20486;-77
2021/09/16 08:36:21;;;;;;;6.67;6.07;;;19.30;90.90;;;18.49;90.40;97797.47;5010611;28;21375;-79
2021/09/16 08:38:48;;;;;;;6.40;5.80;;;19.40;91.20;;;18.47;89.39;97781.31;5030216;28;20494;-79
2021/09/16 08:41:15;;;;;;;7.27;6.13;;;19.50;90.80;;;18.60;88.79;97785.44;5016533;28;20460;-79
2021/09/16 08:43:44;;;;;;;10.20;5.63;;;19.50;90.30;;;18.72;88.09;97793.34;5001260;28;20464;-78
2021/09/16 08:46:11;;;;;;;5.90;5.30;;;19.60;90.20;;;18.71;87.95;97790.88;5032896;28;21034;-79
2021/09/16 08:48:41;;;;;;;7.43;5.17;;;19.70;89.60;;;19.00;87.07;97793.06;5019145;28;20471;-78
2021/09/16 08:51:12;;;;;;;9.70;6.67;;;19.80;89.40;;;19.23;86.48;97797.13;5018796;28;20453;-79
2021/09/16 08:53:43;;;;;;;10.17;7.13;;;20.00;88.90;;;19.61;84.43;97788.53;5012512;28;20483;-78
2021/09/16 08:56:10;;;;;;;6.27;5.67;;;20.40;88.20;;;19.73;83.90;97785.47;5010460;28;20674;-78
2021/09/16 08:58:39;;;;;;;6.77;6.17;;;20.60;87.00;;;20.08;82.64;97798.19;4998854;28;20502;-79
2021/09/16 09:01:08;;;;;;;8.63;5.87;;;20.90;86.70;;;19.91;83.30;97792.22;5011831;28;20527;-78
2021/09/16 09:03:35;;;;;;;6.80;6.20;;;20.90;85.60;;;20.22;81.59;97794.81;5015976;28;20939;-78
2021/09/16 09:06:03;;;;;;;6.60;6.00;;;21.10;85.20;;;19.99;83.05;97797.16;5010439;28;20482;-78
2021/09/16 09:08:33;;;;;;;6.10;5.60;;;21.10;84.80;;;19.86;82.45;97792.25;5016826;28;20448;-79
2021/09/16 09:11:03;;;;;;;6.23;5.63;;;21.10;84.10;;;19.95;82.50;97796.09;5020006;28;20451;-79
2021/09/16 09:13:41;;;;;;;7.60;6.90;;;21.00;84.50;;;19.95;82.86;97807.06;5023412;28;20475;-79
2021/09/16 09:16:11;;;;;;;6.90;6.30;;;20.90;84.70;;;20.13;82.58;97796.53;5018983;28;20475;-79
2021/09/16 09:18:52;;;;;;;5.53;4.93;;;21.00;85.10;;;19.96;82.33;97805.94;5020612;28;20546;-79
2021/09/16 09:21:21;;;;;;;6.03;5.40;;;20.90;84.30;;;19.35;84.20;97799.59;5020658;28;20452;-79
2021/09/16 09:23:55;;;;;;;6.07;5.50;;;20.70;84.40;;;18.48;88.22;97810.31;5038380;28;20462;-80
2021/09/16 09:26:27;;;;;;;6.27;5.67;;;20.00;85.50;;;17.83;89.36;97821.63;5016145;28;20494;-79
2021/09/16 09:28:57;;;;;;;6.83;6.23;;;19.20;86.40;;;16.91;90.23;97829.03;5038606;28;20468;-79
2021/09/16 09:31:26;;;;;;;8.43;7.63;;;18.50;86.90;;;16.55;93.51;97825.97;5019203;28;20859;-78
2021/09/16 09:33:53;;;;;;;9.70;8.90;;;17.80;90.80;;;16.21;95.86;97832.47;4997753;28;20548;-79
2021/09/16 09:36:22;;;;;;;11.80;10.70;;;17.40;92.10;;;15.92;96.94;97818.28;5016671;28;20881;-80
2021/09/16 09:38:59;;;;;;;12.40;11.30;;;17.10;93.50;;;15.96;97.62;97830.31;5019473;28;20486;-80
2021/09/16 09:41:35;;;;;;;13.90;12.70;;;17.00;94.50;;;15.84;98.17;97833.94;5023658;28;20459;-80
2021/09/16 09:44:15;;;;;;;14.90;13.50;;;17.00;95.30;;;15.99;98.49;97829.78;5041743;28;20479;-78
2021/09/16 09:46:50;;;;;;;14.93;13.10;;;17.00;96.00;;;15.96;97.69;97835.75;5040128;28;20498;-78
2021/09/16 09:49:20;;;;;;;14.77;12.53;;;17.00;95.70;;;15.94;98.35;97821.56;5024415;28;20455;-79
2021/09/16 09:51:51;;;;;;;14.87;13.57;;;17.00;96.40;;;16.00;97.95;97828.72;5015718;28;20459;-79
2021/09/16 09:54:24;;;;;;;14.13;12.70;;;17.10;96.30;;;16.17;96.26;97833.28;5018566;28;20479;-78
2021/09/16 09:57:11;;;;;;;13.70;12.40;;;17.10;95.30;;;16.18;97.14;97829.47;5024242;28;20456;-79
2021/09/16 10:00:01;;;;;;;14.17;12.87;;;17.20;95.60;;;16.18;97.40;97837.63;5022869;28;20542;-79
2021/09/16 10:02:31;;;;;;;11.10;10.00;;;17.20;95.70;;;16.20;96.10;97824.56;5031527;28;20464;-79
2021/09/16 10:05:00;;;;;;;13.43;12.10;;;17.20;94.80;;;16.34;96.40;97831.25;5028596;28;20482;-79
2021/09/16 10:07:34;;;;;;;15.23;13.67;;;17.30;95.50;;;16.58;95.13;97841.81;5020494;28;20502;-79
2021/09/16 10:10:09;;;;;;;14.13;12.83;;;17.50;94.50;;;16.80;94.50;97836.28;5001439;28;20551;-78
2021/09/16 10:12:37;;;;;;;14.30;12.97;;;17.60;94.60;;;16.85;92.93;97841.81;5020626;28;20466;-79
2021/09/16 10:15:06;;;;;;;14.80;13.60;;;17.80;93.00;;;17.14;91.66;97837.94;5017416;28;20808;-79
2021/09/16 10:17:34;;;;;;;16.57;14.97;;;18.00;92.60;;;17.04;92.57;97837.84;5020013;28;20532;-79
2021/09/16 10:20:02;;;;;;;16.60;13.90;;;18.10;92.80;;;17.05;92.53;97840.34;5029795;28;20802;-80
2021/09/16 10:22:30;;;;;;;18.40;16.43;;;18.10;92.70;;;17.21;91.60;97848.63;5022177;28;20472;-78